Weather reports worldwide

Advertisment
St. James's Park, United Kingdom (3770): temperature & dewpoint: 17.11.2020 22:00:00 - 23.11.2020 22:00:00 (GMT)St. James's Park, United Kingdom (3770): temperature -20cm & temperature -100cm: 17.11.2020 22:00:00 - 23.11.2020 22:00:00 (GMT)St. James's Park, United Kingdom (3770): precipitation: 17.11.2020 22:00:00 - 23.11.2020 22:00:00 (GMT)
Date & Time tt [°C] td [°C] tt -20cm [°C] tt -100cm [°C] rr [mm]
23.11.2020 22:00:00 7,8 6,7 - - 0,0
23.11.2020 21:00:00 8,7 7,2 - - 0,0
23.11.2020 20:00:00 9,7 7,3 - - 0,0
23.11.2020 19:00:00 9,6 7,0 - - 0,0
23.11.2020 18:00:00 9,5 6,7 - - 0,0
23.11.2020 17:00:00 9,3 6,6 - - 0,0
23.11.2020 16:00:00 9,2 6,3 - - 0,0
23.11.2020 15:00:00 9,9 6,4 - - 0,0
23.11.2020 14:00:00 10,0 6,3 - - 0,0
23.11.2020 13:00:00 9,8 5,5 - - 0,0
23.11.2020 12:00:00 9,3 4,8 - - 0,0
23.11.2020 11:00:00 8,5 5,5 - - 0,0
23.11.2020 10:00:00 6,1 5,9 - - 0,0
23.11.2020 09:00:00 4,0 3,7 10,4 12,5 0,0
23.11.2020 08:00:00 3,9 3,6 - - 0,0
23.11.2020 07:00:00 3,7 3,3 - - 0,0
23.11.2020 06:00:00 4,0 3,6 - - 0,0
23.11.2020 05:00:00 4,1 3,7 - - 0,0
23.11.2020 04:00:00 3,9 3,5 - - 0,0
23.11.2020 03:00:00 4,1 3,7 - - 0,0
23.11.2020 02:00:00 4,1 3,5 - - 0,0
23.11.2020 01:00:00 4,5 3,7 - - 0,0
23.11.2020 00:00:00 5,1 4,0 - - 0,0
22.11.2020 23:00:00 6,0 4,6 - - 0,0
22.11.2020 22:00:00 5,9 4,7 - - 0,0
22.11.2020 21:00:00 6,4 4,8 - - 0,0
22.11.2020 20:00:00 7,5 4,9 - - 0,0
22.11.2020 19:00:00 8,0 5,3 - - 0,0
22.11.2020 18:00:00 8,9 4,3 - - 0,0
22.11.2020 17:00:00 9,8 4,9 - - 0,0
22.11.2020 16:00:00 9,8 5,2 - - 0,0
22.11.2020 15:00:00 10,6 5,2 - - 0,0
22.11.2020 14:00:00 10,7 5,5 - - 0,0
22.11.2020 13:00:00 10,8 5,2 - - 0,0
22.11.2020 12:00:00 10,9 5,6 - - 0,0
22.11.2020 11:00:00 10,6 6,4 - - 0,0
22.11.2020 10:00:00 9,0 7,7 - - 0,0
22.11.2020 09:00:00 8,6 8,1 11,0 12,7 0,0
22.11.2020 08:00:00 7,7 7,0 - - 0,0
22.11.2020 07:00:00 8,5 7,3 - - 0,0
22.11.2020 06:00:00 9,8 8,7 - - 0,0
22.11.2020 05:00:00 9,9 8,8 - - 0,4
22.11.2020 04:00:00 11,3 9,5 - - 0,0
22.11.2020 03:00:00 11,6 9,2 - - 0,0
22.11.2020 02:00:00 11,5 8,9 - - 0,0
22.11.2020 01:00:00 11,4 8,8 - - 0,0
22.11.2020 00:00:00 11,4 8,7 - - 0,0
21.11.2020 23:00:00 11,3 8,4 - - 0,0
21.11.2020 22:00:00 11,4 8,6 - - 0,0
21.11.2020 21:00:00 11,4 8,6 - - 0,0
21.11.2020 20:00:00 11,4 8,5 - - 0,0
21.11.2020 19:00:00 11,6 8,3 - - 0,0
21.11.2020 18:00:00 11,7 8,0 - - 0,0
21.11.2020 17:00:00 12,0 7,8 - - 0,0
21.11.2020 16:00:00 12,1 7,4 - - 0,0
21.11.2020 15:00:00 12,3 7,5 - - 0,0
21.11.2020 14:00:00 12,3 6,9 - - 0,0
21.11.2020 13:00:00 12,1 6,7 - - 0,0
21.11.2020 12:00:00 12,0 7,4 - - 0,0
21.11.2020 11:00:00 12,1 7,6 - - 0,0
21.11.2020 10:00:00 11,5 7,7 - - 0,0
21.11.2020 09:00:00 10,9 8,1 10,7 12,7 0,0
21.11.2020 08:00:00 10,5 8,4 - - 0,0
21.11.2020 07:00:00 10,5 7,9 - - 0,0
21.11.2020 06:00:00 10,7 7,5 - - 0,0
21.11.2020 05:00:00 10,8 7,4 - - 0,0
21.11.2020 04:00:00 10,4 7,6 - - 0,0
21.11.2020 03:00:00 10,5 7,7 - - 0,0
21.11.2020 02:00:00 10,6 8,1 - - 0,0
21.11.2020 01:00:00 10,6 8,2 - - 0,0
21.11.2020 00:00:00 11,1 9,1 - - 0,0
20.11.2020 23:00:00 11,0 9,4 - - 0,0
20.11.2020 22:00:00 10,9 9,4 - - 0,0
20.11.2020 21:00:00 10,6 9,4 - - 0,0
20.11.2020 20:00:00 10,1 9,2 - - 0,0
20.11.2020 19:00:00 10,1 8,9 - - 0,0
20.11.2020 18:00:00 9,8 8,8 - - 0,2
20.11.2020 17:00:00 9,4 8,5 - - 0,4
20.11.2020 16:00:00 9,2 8,1 - - 0,0
20.11.2020 15:00:00 8,9 7,6 - - 0,2
20.11.2020 14:00:00 8,7 7,0 - - 0,2
20.11.2020 13:00:00 8,4 5,6 - - 0,2
20.11.2020 12:00:00 8,8 4,5 - - 0,0
20.11.2020 11:00:00 8,0 3,5 - - 0,0
20.11.2020 10:00:00 6,5 3,1 - - 0,0
20.11.2020 09:00:00 4,9 2,8 10,7 12,7 0,0
20.11.2020 08:00:00 4,0 2,6 - - 0,0
20.11.2020 07:00:00 2,4 1,9 - - 0,0
20.11.2020 06:00:00 2,4 1,9 - - 0,0
20.11.2020 05:00:00 2,0 1,2 - - 0,0
20.11.2020 04:00:00 2,4 1,6 - - 0,0
20.11.2020 03:00:00 2,4 1,5 - - 0,0
20.11.2020 02:00:00 2,6 1,5 - - 0,0
20.11.2020 01:00:00 3,5 1,9 - - 0,0
20.11.2020 00:00:00 4,4 2,0 - - 0,0
19.11.2020 23:00:00 5,0 1,6 - - 0,0
19.11.2020 22:00:00 5,9 2,2 - - 0,0
19.11.2020 21:00:00 6,1 3,2 - - 0,0
19.11.2020 20:00:00 5,9 3,2 - - 0,0
19.11.2020 19:00:00 6,4 3,0 - - 0,0
19.11.2020 18:00:00 7,9 4,2 - - 0,0
19.11.2020 17:00:00 7,9 3,6 - - 0,0
19.11.2020 16:00:00 8,4 3,9 - - 0,0
19.11.2020 15:00:00 8,6 5,0 - - 0,0
19.11.2020 14:00:00 8,6 5,9 - - 0,4
19.11.2020 13:00:00 9,0 6,9 - - 0,4
19.11.2020 12:00:00 8,9 6,7 - - 0,8
19.11.2020 11:00:00 10,4 6,4 - - 0,0
19.11.2020 10:00:00 10,1 6,0 - - 0,0
19.11.2020 09:00:00 9,8 4,9 11,7 12,7 0,0
19.11.2020 08:00:00 9,5 4,4 - - 0,0
19.11.2020 07:00:00 9,5 3,9 - - 0,0
19.11.2020 06:00:00 9,8 3,8 - - 0,0
19.11.2020 05:00:00 9,1 5,2 - - 0,0
19.11.2020 04:00:00 8,9 5,4 - - 0,0
19.11.2020 03:00:00 9,3 4,8 - - 0,0
19.11.2020 02:00:00 8,6 4,3 - - 0,0
19.11.2020 01:00:00 8,4 3,9 - - 0,0
19.11.2020 00:00:00 8,6 3,8 - - 0,0
18.11.2020 23:00:00 8,7 4,0 - - 0,0
18.11.2020 22:00:00 8,9 4,2 - - 0,0
18.11.2020 21:00:00 9,3 4,0 - - 0,0
18.11.2020 20:00:00 10,2 4,1 - - 0,0
18.11.2020 19:00:00 11,5 5,2 - - 0,0
18.11.2020 18:00:00 11,7 9,1 - - 0,2
18.11.2020 17:00:00 14,8 13,1 - - 0,0
18.11.2020 16:00:00 14,2 12,4 - - 0,0
18.11.2020 15:00:00 13,6 11,4 - - 0,2
18.11.2020 14:00:00 13,9 11,1 - - 0,0
18.11.2020 13:00:00 15,2 9,2 - - 0,0
18.11.2020 12:00:00 16,2 8,1 - - 0,0
18.11.2020 11:00:00 15,2 8,1 - - 0,0
18.11.2020 10:00:00 13,6 9,6 - - 0,0
18.11.2020 09:00:00 12,4 9,9 11,7 12,7 0,0
18.11.2020 08:00:00 12,0 9,7 - - 0,0
18.11.2020 07:00:00 12,1 9,7 - - 0,0
18.11.2020 06:00:00 12,3 9,8 - - 0,0
18.11.2020 05:00:00 12,1 9,7 - - 0,0
18.11.2020 04:00:00 12,3 9,8 - - 0,0
18.11.2020 03:00:00 12,3 9,4 - - 0,0
18.11.2020 02:00:00 13,1 9,5 - - 0,0
18.11.2020 01:00:00 13,2 9,5 - - 0,0
18.11.2020 00:00:00 13,3 9,7 - - 0,0
17.11.2020 23:00:00 13,2 9,5 - - 0,0
17.11.2020 22:00:00 12,8 10,1 - - 0,0

tt = temperature
td = dewpoint
tt -20cm = temperature -20cm
tt -100cm = temperature -100cm
rr = precipitation

Next stations